sensor_id;sensor_type;location;lat;lon;timestamp;pressure;altitude;pressure_sealevel;temperature;humidity
80397;BME280;69721;55.894;-3.052;2024-01-27T00:01:58;101763.93;;;7.63;53.82
80397;BME280;69721;55.894;-3.052;2024-01-27T00:04:23;101762.43;;;7.76;53.47
80397;BME280;69721;55.894;-3.052;2024-01-27T00:06:49;101770.66;;;8.26;52.29
80397;BME280;69721;55.894;-3.052;2024-01-27T00:09:17;101765.86;;;7.33;54.26
80397;BME280;69721;55.894;-3.052;2024-01-27T00:11:42;101763.17;;;6.80;55.57
80397;BME280;69721;55.894;-3.052;2024-01-27T00:14:08;101758.06;;;7.37;54.13
80397;BME280;69721;55.894;-3.052;2024-01-27T00:16:34;101757.97;;;6.85;55.27
80397;BME280;69721;55.894;-3.052;2024-01-27T00:18:59;101756.53;;;7.72;54.68
80397;BME280;69721;55.894;-3.052;2024-01-27T00:21:25;101749.33;;;7.51;54.29
80397;BME280;69721;55.894;-3.052;2024-01-27T00:23:50;101761.75;;;7.07;55.36
80397;BME280;69721;55.894;-3.052;2024-01-27T00:26:16;101753.74;;;6.71;56.43
80397;BME280;69721;55.894;-3.052;2024-01-27T00:28:41;101754.59;;;7.36;54.93
80397;BME280;69721;55.894;-3.052;2024-01-27T00:31:07;101761.70;;;6.57;56.95
80397;BME280;69721;55.894;-3.052;2024-01-27T00:33:32;101759.03;;;6.88;57.06
80397;BME280;69721;55.894;-3.052;2024-01-27T00:35:58;101765.94;;;6.53;58.39
80397;BME280;69721;55.894;-3.052;2024-01-27T00:38:23;101762.36;;;7.14;55.99
80397;BME280;69721;55.894;-3.052;2024-01-27T00:40:49;101749.71;;;6.23;58.18
80397;BME280;69721;55.894;-3.052;2024-01-27T00:43:14;101748.75;;;6.95;56.46
80397;BME280;69721;55.894;-3.052;2024-01-27T00:45:40;101759.14;;;6.61;57.56
80397;BME280;69721;55.894;-3.052;2024-01-27T00:48:06;101756.95;;;6.88;55.89
80397;BME280;69721;55.894;-3.052;2024-01-27T00:50:32;101750.53;;;7.06;55.65
80397;BME280;69721;55.894;-3.052;2024-01-27T00:52:57;101750.67;;;7.86;53.13
80397;BME280;69721;55.894;-3.052;2024-01-27T00:55:23;101746.22;;;8.23;52.89
80397;BME280;69721;55.894;-3.052;2024-01-27T00:57:48;101743.68;;;7.18;54.56
80397;BME280;69721;55.894;-3.052;2024-01-27T01:00:14;101738.14;;;7.15;54.60
80397;BME280;69721;55.894;-3.052;2024-01-27T01:02:39;101750.84;;;7.14;55.23
80397;BME280;69721;55.894;-3.052;2024-01-27T01:05:05;101738.83;;;7.11;55.74
80397;BME280;69721;55.894;-3.052;2024-01-27T01:07:31;101735.80;;;8.21;53.86
80397;BME280;69721;55.894;-3.052;2024-01-27T01:09:57;101735.50;;;7.75;54.10
80397;BME280;69721;55.894;-3.052;2024-01-27T01:12:22;101746.54;;;7.08;54.94
80397;BME280;69721;55.894;-3.052;2024-01-27T01:14:48;101731.78;;;7.85;53.61
80397;BME280;69721;55.894;-3.052;2024-01-27T01:17:13;101728.19;;;7.99;53.39
80397;BME280;69721;55.894;-3.052;2024-01-27T01:19:39;101723.69;;;8.96;51.34
80397;BME280;69721;55.894;-3.052;2024-01-27T01:22:05;101725.16;;;6.64;56.84
80397;BME280;69721;55.894;-3.052;2024-01-27T01:24:30;101727.57;;;6.60;56.60
80397;BME280;69721;55.894;-3.052;2024-01-27T01:26:55;101732.57;;;6.65;56.69
80397;BME280;69721;55.894;-3.052;2024-01-27T01:29:21;101726.89;;;6.80;56.78
80397;BME280;69721;55.894;-3.052;2024-01-27T01:31:46;101732.43;;;7.40;56.00
80397;BME280;69721;55.894;-3.052;2024-01-27T01:34:12;101733.47;;;7.68;54.09
80397;BME280;69721;55.894;-3.052;2024-01-27T01:36:37;101735.75;;;7.74;53.58
80397;BME280;69721;55.894;-3.052;2024-01-27T01:39:03;101730.40;;;7.40;55.24
80397;BME280;69721;55.894;-3.052;2024-01-27T01:41:28;101740.61;;;7.16;54.96
80397;BME280;69721;55.894;-3.052;2024-01-27T01:43:54;101741.88;;;6.37;57.49
80397;BME280;69721;55.894;-3.052;2024-01-27T01:46:21;101736.69;;;6.29;58.60
80397;BME280;69721;55.894;-3.052;2024-01-27T01:48:45;101736.10;;;6.82;57.18
80397;BME280;69721;55.894;-3.052;2024-01-27T01:51:10;101734.84;;;7.07;56.04
80397;BME280;69721;55.894;-3.052;2024-01-27T01:53:36;101732.65;;;7.07;55.14
80397;BME280;69721;55.894;-3.052;2024-01-27T01:56:02;101726.01;;;6.81;55.69
80397;BME280;69721;55.894;-3.052;2024-01-27T01:58:27;101727.44;;;7.31;55.35
80397;BME280;69721;55.894;-3.052;2024-01-27T02:00:52;101718.54;;;7.45;54.43
80397;BME280;69721;55.894;-3.052;2024-01-27T02:03:18;101724.50;;;7.63;53.87
80397;BME280;69721;55.894;-3.052;2024-01-27T02:05:43;101713.89;;;7.38;54.66
80397;BME280;69721;55.894;-3.052;2024-01-27T02:08:09;101711.86;;;7.43;55.23
80397;BME280;69721;55.894;-3.052;2024-01-27T02:10:35;101708.37;;;6.70;56.44
80397;BME280;69721;55.894;-3.052;2024-01-27T02:13:02;101703.79;;;7.72;54.27
80397;BME280;69721;55.894;-3.052;2024-01-27T02:15:27;101708.34;;;6.39;57.05
80397;BME280;69721;55.894;-3.052;2024-01-27T02:17:53;101700.88;;;6.63;56.85
80397;BME280;69721;55.894;-3.052;2024-01-27T02:20:18;101706.60;;;6.80;56.36
80397;BME280;69721;55.894;-3.052;2024-01-27T02:22:44;101711.13;;;7.65;54.81
80397;BME280;69721;55.894;-3.052;2024-01-27T02:25:09;101709.99;;;7.69;55.03
80397;BME280;69721;55.894;-3.052;2024-01-27T02:27:35;101703.31;;;7.66;53.95
80397;BME280;69721;55.894;-3.052;2024-01-27T02:30:00;101706.79;;;7.43;54.32
80397;BME280;69721;55.894;-3.052;2024-01-27T02:32:26;101706.64;;;6.72;55.61
80397;BME280;69721;55.894;-3.052;2024-01-27T02:34:51;101705.10;;;8.06;53.30
80397;BME280;69721;55.894;-3.052;2024-01-27T02:37:17;101706.20;;;7.76;54.23
80397;BME280;69721;55.894;-3.052;2024-01-27T02:39:42;101705.06;;;6.75;56.34
80397;BME280;69721;55.894;-3.052;2024-01-27T02:42:08;101692.84;;;6.44;57.40
80397;BME280;69721;55.894;-3.052;2024-01-27T02:44:33;101699.82;;;5.68;58.97
80397;BME280;69721;55.894;-3.052;2024-01-27T02:46:59;101699.82;;;7.39;55.12
80397;BME280;69721;55.894;-3.052;2024-01-27T02:49:24;101692.32;;;7.58;54.47
80397;BME280;69721;55.894;-3.052;2024-01-27T02:51:50;101695.07;;;7.24;55.28
80397;BME280;69721;55.894;-3.052;2024-01-27T02:54:15;101688.30;;;6.92;55.77
80397;BME280;69721;55.894;-3.052;2024-01-27T02:56:41;101697.29;;;6.46;57.36
80397;BME280;69721;55.894;-3.052;2024-01-27T02:59:07;101685.42;;;7.07;55.12
80397;BME280;69721;55.894;-3.052;2024-01-27T03:01:32;101679.58;;;6.65;57.27
80397;BME280;69721;55.894;-3.052;2024-01-27T03:03:58;101694.38;;;6.67;57.90
80397;BME280;69721;55.894;-3.052;2024-01-27T03:06:23;101685.35;;;6.24;57.82
80397;BME280;69721;55.894;-3.052;2024-01-27T03:08:49;101701.18;;;6.07;59.47
80397;BME280;69721;55.894;-3.052;2024-01-27T03:11:14;101691.76;;;5.99;60.81
80397;BME280;69721;55.894;-3.052;2024-01-27T03:13:40;101686.89;;;6.54;58.40
80397;BME280;69721;55.894;-3.052;2024-01-27T03:16:09;101683.46;;;5.62;61.14
80397;BME280;69721;55.894;-3.052;2024-01-27T03:18:31;101678.99;;;6.47;59.49
80397;BME280;69721;55.894;-3.052;2024-01-27T03:20:56;101682.19;;;6.15;60.06
80397;BME280;69721;55.894;-3.052;2024-01-27T03:23:22;101681.04;;;6.32;58.77
80397;BME280;69721;55.894;-3.052;2024-01-27T03:25:47;101678.41;;;6.34;58.98
80397;BME280;69721;55.894;-3.052;2024-01-27T03:28:13;101668.41;;;7.05;57.25
80397;BME280;69721;55.894;-3.052;2024-01-27T03:30:38;101676.94;;;6.40;57.71
80397;BME280;69721;55.894;-3.052;2024-01-27T03:33:04;101677.31;;;6.29;58.82
80397;BME280;69721;55.894;-3.052;2024-01-27T03:35:29;101661.55;;;7.51;56.24
80397;BME280;69721;55.894;-3.052;2024-01-27T03:37:55;101669.88;;;6.38;58.12
80397;BME280;69721;55.894;-3.052;2024-01-27T03:40:20;101659.56;;;6.56;56.81
80397;BME280;69721;55.894;-3.052;2024-01-27T03:42:46;101663.70;;;6.51;57.31
80397;BME280;69721;55.894;-3.052;2024-01-27T03:45:11;101663.20;;;6.47;57.00
80397;BME280;69721;55.894;-3.052;2024-01-27T03:47:37;101660.57;;;7.20;55.49
80397;BME280;69721;55.894;-3.052;2024-01-27T03:50:03;101662.30;;;6.30;56.81
80397;BME280;69721;55.894;-3.052;2024-01-27T03:52:28;101667.75;;;6.40;58.11
80397;BME280;69721;55.894;-3.052;2024-01-27T03:54:53;101664.01;;;5.86;57.85
80397;BME280;69721;55.894;-3.052;2024-01-27T03:57:20;101661.86;;;6.74;56.61
80397;BME280;69721;55.894;-3.052;2024-01-27T03:59:45;101662.90;;;6.04;57.29
80397;BME280;69721;55.894;-3.052;2024-01-27T04:02:11;101655.88;;;6.65;56.57
80397;BME280;69721;55.894;-3.052;2024-01-27T04:04:36;101652.82;;;6.04;58.01
80397;BME280;69721;55.894;-3.052;2024-01-27T04:07:03;101666.94;;;5.76;59.49
80397;BME280;69721;55.894;-3.052;2024-01-27T04:09:28;101672.33;;;5.92;60.39
80397;BME280;69721;55.894;-3.052;2024-01-27T04:11:54;101670.73;;;5.53;60.49
80397;BME280;69721;55.894;-3.052;2024-01-27T04:14:19;101677.90;;;5.80;60.13
80397;BME280;69721;55.894;-3.052;2024-01-27T04:16:45;101670.28;;;5.73;60.92
80397;BME280;69721;55.894;-3.052;2024-01-27T04:19:10;101674.45;;;6.04;60.19
80397;BME280;69721;55.894;-3.052;2024-01-27T04:21:36;101662.06;;;6.78;57.08
80397;BME280;69721;55.894;-3.052;2024-01-27T04:24:01;101661.25;;;6.60;56.84
80397;BME280;69721;55.894;-3.052;2024-01-27T04:26:28;101663.37;;;6.42;58.22
80397;BME280;69721;55.894;-3.052;2024-01-27T04:28:52;101666.95;;;6.87;57.01
80397;BME280;69721;55.894;-3.052;2024-01-27T04:31:18;101668.96;;;6.88;55.71
80397;BME280;69721;55.894;-3.052;2024-01-27T04:33:43;101667.57;;;6.08;57.64
80397;BME280;69721;55.894;-3.052;2024-01-27T04:36:09;101673.44;;;6.41;57.14
80397;BME280;69721;55.894;-3.052;2024-01-27T04:38:34;101673.15;;;6.30;57.50
80397;BME280;69721;55.894;-3.052;2024-01-27T04:41:01;101676.69;;;6.55;57.15
80397;BME280;69721;55.894;-3.052;2024-01-27T04:43:25;101686.44;;;6.76;57.34
80397;BME280;69721;55.894;-3.052;2024-01-27T04:45:51;101685.69;;;5.93;58.63
80397;BME280;69721;55.894;-3.052;2024-01-27T04:48:17;101685.20;;;5.99;58.91
80397;BME280;69721;55.894;-3.052;2024-01-27T04:50:42;101690.16;;;6.65;57.51
80397;BME280;69721;55.894;-3.052;2024-01-27T04:53:08;101692.50;;;6.41;57.50
80397;BME280;69721;55.894;-3.052;2024-01-27T04:55:33;101683.50;;;5.98;58.68
80397;BME280;69721;55.894;-3.052;2024-01-27T04:57:59;101688.91;;;6.77;56.40
80397;BME280;69721;55.894;-3.052;2024-01-27T05:00:24;101678.01;;;5.95;58.35
80397;BME280;69721;55.894;-3.052;2024-01-27T05:02:50;101678.51;;;5.29;60.53
80397;BME280;69721;55.894;-3.052;2024-01-27T05:05:15;101668.19;;;5.48;59.49
80397;BME280;69721;55.894;-3.052;2024-01-27T05:07:41;101667.01;;;5.11;60.85
80397;BME280;69721;55.894;-3.052;2024-01-27T05:10:11;101663.95;;;5.67;59.54
80397;BME280;69721;55.894;-3.052;2024-01-27T05:12:32;101659.94;;;5.63;58.75
80397;BME280;69721;55.894;-3.052;2024-01-27T05:14:57;101663.90;;;6.16;58.13
80397;BME280;69721;55.894;-3.052;2024-01-27T05:17:23;101658.81;;;5.58;58.94
80397;BME280;69721;55.894;-3.052;2024-01-27T05:19:52;101659.23;;;6.53;56.77
80397;BME280;69721;55.894;-3.052;2024-01-27T05:22:14;101647.20;;;6.38;57.28
80397;BME280;69721;55.894;-3.052;2024-01-27T05:24:39;101638.74;;;6.95;55.21
80397;BME280;69721;55.894;-3.052;2024-01-27T05:27:06;101646.92;;;5.65;57.22
80397;BME280;69721;55.894;-3.052;2024-01-27T05:29:31;101664.05;;;5.80;58.24
80397;BME280;69721;55.894;-3.052;2024-01-27T05:31:57;101641.49;;;5.35;59.79
80397;BME280;69721;55.894;-3.052;2024-01-27T05:34:22;101646.45;;;6.24;57.76
80397;BME280;69721;55.894;-3.052;2024-01-27T05:36:48;101642.84;;;6.50;56.40
80397;BME280;69721;55.894;-3.052;2024-01-27T05:39:14;101648.80;;;5.96;57.08
80397;BME280;69721;55.894;-3.052;2024-01-27T05:41:39;101653.01;;;6.40;56.28
80397;BME280;69721;55.894;-3.052;2024-01-27T05:44:04;101654.63;;;5.93;57.56
80397;BME280;69721;55.894;-3.052;2024-01-27T05:46:30;101649.22;;;5.27;59.64
80397;BME280;69721;55.894;-3.052;2024-01-27T05:48:56;101640.68;;;5.97;57.96
80397;BME280;69721;55.894;-3.052;2024-01-27T05:51:22;101644.28;;;5.93;58.01
80397;BME280;69721;55.894;-3.052;2024-01-27T05:53:47;101634.53;;;5.50;58.55
80397;BME280;69721;55.894;-3.052;2024-01-27T05:56:12;101641.68;;;6.01;57.93
80397;BME280;69721;55.894;-3.052;2024-01-27T05:58:38;101632.42;;;5.99;58.71
80397;BME280;69721;55.894;-3.052;2024-01-27T06:01:04;101637.56;;;5.78;58.85
80397;BME280;69721;55.894;-3.052;2024-01-27T06:03:29;101647.14;;;5.95;58.90
80397;BME280;69721;55.894;-3.052;2024-01-27T06:05:55;101636.71;;;6.47;57.90
80397;BME280;69721;55.894;-3.052;2024-01-27T06:08:20;101629.27;;;6.26;57.73
80397;BME280;69721;55.894;-3.052;2024-01-27T06:10:46;101652.61;;;5.71;58.47
80397;BME280;69721;55.894;-3.052;2024-01-27T06:13:11;101653.48;;;6.02;59.09
80397;BME280;69721;55.894;-3.052;2024-01-27T06:15:37;101654.61;;;6.05;58.28
80397;BME280;69721;55.894;-3.052;2024-01-27T06:18:02;101654.69;;;6.13;58.62
80397;BME280;69721;55.894;-3.052;2024-01-27T06:20:29;101652.67;;;5.15;60.24
80397;BME280;69721;55.894;-3.052;2024-01-27T06:22:54;101653.19;;;5.12;61.12
80397;BME280;69721;55.894;-3.052;2024-01-27T06:25:20;101647.48;;;5.41;60.13
80397;BME280;69721;55.894;-3.052;2024-01-27T06:27:45;101648.39;;;5.38;60.25
80397;BME280;69721;55.894;-3.052;2024-01-27T06:30:12;101643.79;;;5.58;60.48
80397;BME280;69721;55.894;-3.052;2024-01-27T06:32:36;101635.05;;;5.67;59.12
80397;BME280;69721;55.894;-3.052;2024-01-27T06:35:03;101628.30;;;4.67;61.99
80397;BME280;69721;55.894;-3.052;2024-01-27T06:37:27;101626.76;;;4.96;61.37
80397;BME280;69721;55.894;-3.052;2024-01-27T06:39:53;101636.45;;;5.15;61.99
80397;BME280;69721;55.894;-3.052;2024-01-27T06:42:18;101626.20;;;5.28;61.48
80397;BME280;69721;55.894;-3.052;2024-01-27T06:44:44;101616.57;;;5.90;60.51
80397;BME280;69721;55.894;-3.052;2024-01-27T06:47:10;101626.72;;;4.53;63.24
80397;BME280;69721;55.894;-3.052;2024-01-27T06:49:36;101624.13;;;5.73;59.77
80397;BME280;69721;55.894;-3.052;2024-01-27T06:52:01;101620.37;;;6.50;57.58
80397;BME280;69721;55.894;-3.052;2024-01-27T06:54:27;101627.01;;;6.00;57.97
80397;BME280;69721;55.894;-3.052;2024-01-27T06:56:52;101622.90;;;5.52;59.14
80397;BME280;69721;55.894;-3.052;2024-01-27T06:59:18;101626.32;;;5.91;58.63
80397;BME280;69721;55.894;-3.052;2024-01-27T07:01:46;101617.79;;;6.71;56.12
80397;BME280;69721;55.894;-3.052;2024-01-27T07:04:09;101618.07;;;5.39;58.24
80397;BME280;69721;55.894;-3.052;2024-01-27T07:06:34;101629.04;;;6.04;57.87
80397;BME280;69721;55.894;-3.052;2024-01-27T07:09:00;101623.90;;;5.28;59.29
80397;BME280;69721;55.894;-3.052;2024-01-27T07:11:26;101625.49;;;5.39;59.96
80397;BME280;69721;55.894;-3.052;2024-01-27T07:13:52;101624.29;;;4.73;60.44
80397;BME280;69721;55.894;-3.052;2024-01-27T07:16:18;101630.46;;;5.30;60.74
80397;BME280;69721;55.894;-3.052;2024-01-27T07:18:44;101646.28;;;4.53;62.42
80397;BME280;69721;55.894;-3.052;2024-01-27T07:21:15;101632.29;;;5.92;58.37
80397;BME280;69721;55.894;-3.052;2024-01-27T07:23:35;101629.89;;;5.47;59.97
80397;BME280;69721;55.894;-3.052;2024-01-27T07:26:01;101634.45;;;4.91;61.56
80397;BME280;69721;55.894;-3.052;2024-01-27T07:28:26;101630.51;;;5.03;60.18
80397;BME280;69721;55.894;-3.052;2024-01-27T07:30:52;101642.91;;;4.83;60.87
80397;BME280;69721;55.894;-3.052;2024-01-27T07:33:17;101654.50;;;5.58;58.81
80397;BME280;69721;55.894;-3.052;2024-01-27T07:35:43;101653.07;;;5.87;58.11
80397;BME280;69721;55.894;-3.052;2024-01-27T07:38:08;101642.95;;;5.57;58.76
80397;BME280;69721;55.894;-3.052;2024-01-27T07:40:34;101651.37;;;5.56;58.78
80397;BME280;69721;55.894;-3.052;2024-01-27T07:42:59;101645.91;;;6.29;58.16
80397;BME280;69721;55.894;-3.052;2024-01-27T07:45:25;101642.10;;;5.14;60.20
80397;BME280;69721;55.894;-3.052;2024-01-27T07:47:50;101651.60;;;5.72;58.21
80397;BME280;69721;55.894;-3.052;2024-01-27T07:50:16;101663.15;;;5.22;59.11
80397;BME280;69721;55.894;-3.052;2024-01-27T07:52:41;101665.98;;;5.58;57.94
80397;BME280;69721;55.894;-3.052;2024-01-27T07:55:08;101668.25;;;6.46;56.09
80397;BME280;69721;55.894;-3.052;2024-01-27T07:57:32;101681.01;;;5.39;58.89
80397;BME280;69721;55.894;-3.052;2024-01-27T07:59:58;101667.43;;;4.96;60.33
80397;BME280;69721;55.894;-3.052;2024-01-27T08:02:24;101683.82;;;5.32;58.77
80397;BME280;69721;55.894;-3.052;2024-01-27T08:04:50;101668.23;;;5.99;58.00
80397;BME280;69721;55.894;-3.052;2024-01-27T08:07:15;101667.42;;;6.69;55.28
80397;BME280;69721;55.894;-3.052;2024-01-27T08:09:41;101676.96;;;6.26;55.81
80397;BME280;69721;55.894;-3.052;2024-01-27T08:12:07;101676.77;;;5.38;56.95
80397;BME280;69721;55.894;-3.052;2024-01-27T08:14:32;101670.76;;;6.43;55.12
80397;BME280;69721;55.894;-3.052;2024-01-27T08:16:57;101675.12;;;5.83;57.88
80397;BME280;69721;55.894;-3.052;2024-01-27T08:19:24;101667.40;;;5.83;57.56
80397;BME280;69721;55.894;-3.052;2024-01-27T08:21:48;101675.95;;;6.17;56.92
80397;BME280;69721;55.894;-3.052;2024-01-27T08:24:14;101672.52;;;5.89;57.07
80397;BME280;69721;55.894;-3.052;2024-01-27T08:26:40;101668.75;;;5.52;58.84
80397;BME280;69721;55.894;-3.052;2024-01-27T08:29:06;101666.51;;;5.41;59.41
80397;BME280;69721;55.894;-3.052;2024-01-27T08:31:31;101658.69;;;5.79;58.22
80397;BME280;69721;55.894;-3.052;2024-01-27T08:33:57;101659.99;;;5.69;57.49
80397;BME280;69721;55.894;-3.052;2024-01-27T08:36:22;101650.14;;;7.42;53.90
80397;BME280;69721;55.894;-3.052;2024-01-27T08:38:48;101650.72;;;6.18;56.00
80397;BME280;69721;55.894;-3.052;2024-01-27T08:41:13;101657.00;;;5.82;56.97
80397;BME280;69721;55.894;-3.052;2024-01-27T08:43:39;101655.68;;;6.61;55.64
80397;BME280;69721;55.894;-3.052;2024-01-27T08:46:04;101651.13;;;6.91;54.22
80397;BME280;69721;55.894;-3.052;2024-01-27T08:48:30;101651.90;;;6.94;54.44
80397;BME280;69721;55.894;-3.052;2024-01-27T08:50:55;101664.79;;;7.40;53.41
80397;BME280;69721;55.894;-3.052;2024-01-27T08:53:21;101662.61;;;6.58;55.05
80397;BME280;69721;55.894;-3.052;2024-01-27T08:55:46;101662.43;;;6.74;54.04
80397;BME280;69721;55.894;-3.052;2024-01-27T08:58:12;101659.24;;;7.25;53.11
80397;BME280;69721;55.894;-3.052;2024-01-27T09:00:37;101678.70;;;6.18;56.51
80397;BME280;69721;55.894;-3.052;2024-01-27T09:03:03;101661.52;;;4.93;59.87
80397;BME280;69721;55.894;-3.052;2024-01-27T09:05:28;101660.86;;;5.77;57.29
80397;BME280;69721;55.894;-3.052;2024-01-27T09:07:54;101675.52;;;7.04;55.47
80397;BME280;69721;55.894;-3.052;2024-01-27T09:10:19;101670.59;;;6.88;55.94
80397;BME280;69721;55.894;-3.052;2024-01-27T09:12:45;101674.78;;;6.59;55.10
80397;BME280;69721;55.894;-3.052;2024-01-27T09:15:11;101674.34;;;6.27;55.70
80397;BME280;69721;55.894;-3.052;2024-01-27T09:17:36;101673.56;;;7.36;54.46
80397;BME280;69721;55.894;-3.052;2024-01-27T09:20:02;101674.89;;;6.36;55.70
80397;BME280;69721;55.894;-3.052;2024-01-27T09:22:27;101678.73;;;6.50;56.52
80397;BME280;69721;55.894;-3.052;2024-01-27T09:24:53;101673.78;;;7.41;53.59
80397;BME280;69721;55.894;-3.052;2024-01-27T09:27:18;101674.11;;;7.35;54.09
80397;BME280;69721;55.894;-3.052;2024-01-27T09:29:44;101668.43;;;7.73;52.00
80397;BME280;69721;55.894;-3.052;2024-01-27T09:32:09;101664.98;;;7.81;52.06
80397;BME280;69721;55.894;-3.052;2024-01-27T09:34:35;101667.86;;;7.16;53.27
80397;BME280;69721;55.894;-3.052;2024-01-27T09:37:01;101667.67;;;8.17;51.75
80397;BME280;69721;55.894;-3.052;2024-01-27T09:39:26;101663.61;;;8.15;51.09
80397;BME280;69721;55.894;-3.052;2024-01-27T09:41:51;101672.36;;;8.53;49.70
80397;BME280;69721;55.894;-3.052;2024-01-27T09:44:18;101661.17;;;6.79;53.25
80397;BME280;69721;55.894;-3.052;2024-01-27T09:46:42;101665.66;;;7.20;53.15
80397;BME280;69721;55.894;-3.052;2024-01-27T09:49:09;101680.33;;;8.66;49.48
80397;BME280;69721;55.894;-3.052;2024-01-27T09:51:34;101680.48;;;6.97;53.04
80397;BME280;69721;55.894;-3.052;2024-01-27T09:53:59;101675.64;;;6.42;56.01
80397;BME280;69721;55.894;-3.052;2024-01-27T09:56:25;101670.22;;;7.30;53.69
80397;BME280;69721;55.894;-3.052;2024-01-27T09:58:50;101670.82;;;6.94;54.07
80397;BME280;69721;55.894;-3.052;2024-01-27T10:01:20;101681.22;;;6.13;56.37
80397;BME280;69721;55.894;-3.052;2024-01-27T10:03:41;101675.92;;;7.19;54.68
80397;BME280;69721;55.894;-3.052;2024-01-27T10:06:09;101690.09;;;5.90;56.27
80397;BME280;69721;55.894;-3.052;2024-01-27T10:08:32;101694.20;;;6.35;56.45
80397;BME280;69721;55.894;-3.052;2024-01-27T10:10:57;101677.49;;;7.82;53.52
80397;BME280;69721;55.894;-3.052;2024-01-27T10:13:23;101679.06;;;5.85;57.15
80397;BME280;69721;55.894;-3.052;2024-01-27T10:15:59;101689.64;;;7.17;54.82
80397;BME280;69721;55.894;-3.052;2024-01-27T10:18:14;101685.40;;;6.67;55.97
80397;BME280;69721;55.894;-3.052;2024-01-27T10:20:39;101696.42;;;6.48;57.32
80397;BME280;69721;55.894;-3.052;2024-01-27T10:23:12;101697.28;;;5.82;58.99
80397;BME280;69721;55.894;-3.052;2024-01-27T10:25:30;101693.19;;;6.26;57.53
80397;BME280;69721;55.894;-3.052;2024-01-27T10:27:56;101685.23;;;6.83;56.02
80397;BME280;69721;55.894;-3.052;2024-01-27T10:30:21;101690.28;;;6.45;57.61
80397;BME280;69721;55.894;-3.052;2024-01-27T10:32:55;101674.49;;;6.94;55.98
80397;BME280;69721;55.894;-3.052;2024-01-27T10:35:12;101678.54;;;6.87;55.73
80397;BME280;69721;55.894;-3.052;2024-01-27T10:37:38;101682.54;;;6.88;55.98
80397;BME280;69721;55.894;-3.052;2024-01-27T10:40:05;101686.10;;;7.04;56.17
80397;BME280;69721;55.894;-3.052;2024-01-27T10:42:29;101694.33;;;6.87;56.00
80397;BME280;69721;55.894;-3.052;2024-01-27T10:44:56;101684.63;;;7.73;55.03
80397;BME280;69721;55.894;-3.052;2024-01-27T10:47:20;101692.22;;;7.42;55.19
80397;BME280;69721;55.894;-3.052;2024-01-27T10:49:48;101677.89;;;6.90;55.74
80397;BME280;69721;55.894;-3.052;2024-01-27T10:52:11;101683.55;;;6.91;56.14
80397;BME280;69721;55.894;-3.052;2024-01-27T10:54:37;101688.93;;;7.06;54.97
80397;BME280;69721;55.894;-3.052;2024-01-27T10:57:02;101697.63;;;6.94;55.85
80397;BME280;69721;55.894;-3.052;2024-01-27T10:59:27;101700.88;;;7.72;55.32
80397;BME280;69721;55.894;-3.052;2024-01-27T11:01:53;101690.26;;;7.84;53.36
80397;BME280;69721;55.894;-3.052;2024-01-27T11:04:20;101702.93;;;7.96;52.05
80397;BME280;69721;55.894;-3.052;2024-01-27T11:06:44;101697.77;;;7.67;52.75
80397;BME280;69721;55.894;-3.052;2024-01-27T11:09:09;101698.00;;;8.13;52.44
80397;BME280;69721;55.894;-3.052;2024-01-27T11:11:35;101708.99;;;8.53;52.31
80397;BME280;69721;55.894;-3.052;2024-01-27T11:14:00;101702.10;;;7.64;52.86
80397;BME280;69721;55.894;-3.052;2024-01-27T11:16:26;101710.87;;;7.22;53.90
80397;BME280;69721;55.894;-3.052;2024-01-27T11:18:56;101714.71;;;7.64;53.75
80397;BME280;69721;55.894;-3.052;2024-01-27T11:21:17;101711.94;;;7.59;52.85
80397;BME280;69721;55.894;-3.052;2024-01-27T11:23:42;101704.01;;;7.81;52.84
80397;BME280;69721;55.894;-3.052;2024-01-27T11:26:09;101706.67;;;8.39;51.37
80397;BME280;69721;55.894;-3.052;2024-01-27T11:28:33;101704.40;;;7.69;53.34
80397;BME280;69721;55.894;-3.052;2024-01-27T11:31:02;101716.24;;;7.58;53.24
80397;BME280;69721;55.894;-3.052;2024-01-27T11:33:25;101713.72;;;7.79;53.64
80397;BME280;69721;55.894;-3.052;2024-01-27T11:38:15;101708.84;;;7.01;54.49
80397;BME280;69721;55.894;-3.052;2024-01-27T11:40:46;101710.81;;;7.20;54.32
80397;BME280;69721;55.894;-3.052;2024-01-27T11:43:06;101706.82;;;8.77;51.42
80397;BME280;69721;55.894;-3.052;2024-01-27T11:45:31;101705.85;;;9.88;48.14
80397;BME280;69721;55.894;-3.052;2024-01-27T11:47:57;101694.65;;;8.22;50.85
80397;BME280;69721;55.894;-3.052;2024-01-27T11:50:23;101694.81;;;7.65;52.60
80397;BME280;69721;55.894;-3.052;2024-01-27T11:52:48;101696.38;;;8.77;50.68
80397;BME280;69721;55.894;-3.052;2024-01-27T11:55:14;101696.98;;;7.52;53.91
80397;BME280;69721;55.894;-3.052;2024-01-27T11:57:39;101698.08;;;8.68;51.67
80397;BME280;69721;55.894;-3.052;2024-01-27T12:00:06;101693.31;;;8.64;52.62
80397;BME280;69721;55.894;-3.052;2024-01-27T12:02:30;101699.56;;;9.90;48.52
80397;BME280;69721;55.894;-3.052;2024-01-27T12:04:56;101700.62;;;9.17;49.84
80397;BME280;69721;55.894;-3.052;2024-01-27T12:07:22;101696.27;;;9.55;49.45
80397;BME280;69721;55.894;-3.052;2024-01-27T12:09:49;101698.27;;;10.16;48.38
80397;BME280;69721;55.894;-3.052;2024-01-27T12:12:13;101690.91;;;10.14;47.15
80397;BME280;69721;55.894;-3.052;2024-01-27T12:14:39;101701.88;;;10.04;46.82
80397;BME280;69721;55.894;-3.052;2024-01-27T12:17:53;101695.90;;;11.38;44.74
80397;BME280;69721;55.894;-3.052;2024-01-27T12:20:19;101697.92;;;10.98;43.99
80397;BME280;69721;55.894;-3.052;2024-01-27T12:22:46;101690.81;;;10.26;46.65
80397;BME280;69721;55.894;-3.052;2024-01-27T12:25:13;101698.36;;;9.64;47.37
80397;BME280;69721;55.894;-3.052;2024-01-27T12:27:37;101688.84;;;11.12;45.11
80397;BME280;69721;55.894;-3.052;2024-01-27T12:30:03;101702.28;;;10.26;46.55
80397;BME280;69721;55.894;-3.052;2024-01-27T12:32:28;101702.26;;;10.15;47.11
80397;BME280;69721;55.894;-3.052;2024-01-27T12:34:53;101691.39;;;10.18;46.33
80397;BME280;69721;55.894;-3.052;2024-01-27T12:37:21;101683.80;;;10.21;46.57
80397;BME280;69721;55.894;-3.052;2024-01-27T12:39:44;101692.19;;;10.06;47.18
80397;BME280;69721;55.894;-3.052;2024-01-27T12:42:09;101690.61;;;10.66;45.16
80397;BME280;69721;55.894;-3.052;2024-01-27T12:44:35;101690.96;;;10.46;46.20